Time;durP1;ratioP1;P1;durP2;ratioP2;P2;SDS_P1;SDS_P2;PMS_P1;PMS_P2;Temp;Humidity;BMP_temperature;BMP_pressure;BME280_temperature;BME280_humidity;BME280_pressure;Samples;Min_cycle;Max_cycle;Signal;HPM_P1;HPM_P2
2024/04/09 00:01:19;;;;;;;22.97;6.53;;;;;;;19.33;75.58;97025.38;4484446;26;21274;-82
2024/04/09 00:03:22;;;;;;;20.93;6.77;;;;;;;19.31;76.23;97024.75;4469946;26;20649;-81
2024/04/09 00:05:32;;;;;;;30.00;6.30;;;;;;;19.28;75.82;97027.75;4504378;26;20564;-82
2024/04/09 00:07:36;;;;;;;22.13;6.10;;;;;;;19.28;75.91;97029.59;4498158;26;20620;-81
2024/04/09 00:09:45;;;;;;;24.50;6.60;;;;;;;19.27;75.83;97026.09;4530715;26;20637;-80
2024/04/09 00:11:49;;;;;;;18.43;6.87;;;;;;;19.26;75.77;97021.00;4501222;26;20629;-80
2024/04/09 00:13:58;;;;;;;22.30;8.33;;;;;;;19.27;76.02;97022.66;4506687;26;20586;-82
2024/04/09 00:16:12;;;;;;;27.37;8.10;;;;;;;19.27;75.97;97025.31;4502297;26;20540;-80
2024/04/09 00:18:17;;;;;;;23.43;7.20;;;;;;;19.24;76.56;97023.03;4493566;26;20568;-78
2024/04/09 00:20:23;;;;;;;23.03;7.50;;;;;;;19.21;77.09;97026.03;4500306;26;20620;-81
2024/04/09 00:22:30;;;;;;;20.93;7.07;;;;;;;19.21;77.37;97024.19;4508341;26;20623;-79
2024/04/09 00:24:34;;;;;;;18.50;5.90;;;;;;;19.18;76.73;97032.50;4530187;26;21239;-80
2024/04/09 00:26:40;;;;;;;19.10;6.97;;;;;;;19.16;76.88;97026.59;4534998;26;20629;-79
2024/04/09 00:28:47;;;;;;;25.37;7.30;;;;;;;19.11;76.78;97015.75;4500115;26;20645;-78
2024/04/09 00:30:54;;;;;;;24.80;7.20;;;;;;;19.12;77.27;97027.13;4519116;26;20564;-79
2024/04/09 00:33:00;;;;;;;25.70;8.53;;;;;;;19.14;78.10;97025.13;4505654;26;20581;-79
2024/04/09 00:35:11;;;;;;;18.43;6.33;;;;;;;19.14;78.79;97023.31;4473655;26;21262;-79
2024/04/09 00:37:14;;;;;;;21.20;7.47;;;;;;;19.13;77.63;97020.84;4500312;26;20656;-80
2024/04/09 00:39:23;;;;;;;23.50;7.07;;;;;;;19.10;77.51;97016.75;4531424;26;21262;-80
2024/04/09 00:41:27;;;;;;;24.03;7.57;;;;;;;19.09;77.03;97020.41;4525947;26;21249;-80
2024/04/09 00:43:30;;;;;;;19.07;6.63;;;;;;;19.07;77.97;97032.16;4538760;26;20626;-80
2024/04/09 00:45:36;;;;;;;23.27;7.10;;;;;;;19.02;77.75;97035.34;4479723;26;20622;-80
2024/04/09 00:47:40;;;;;;;23.50;7.40;;;;;;;18.97;78.14;97028.91;4504906;26;20657;-80
2024/04/09 00:49:53;;;;;;;15.53;6.70;;;;;;;18.93;78.50;97035.59;4504747;26;20707;-79
2024/04/09 00:51:57;;;;;;;26.37;7.33;;;;;;;18.89;77.99;97029.81;4472290;26;20982;-80
2024/04/09 00:54:03;;;;;;;20.80;7.03;;;;;;;18.91;78.38;97037.56;4472483;26;20661;-80
2024/04/09 00:56:08;;;;;;;20.50;6.63;;;;;;;18.86;78.32;97026.72;4501148;26;21234;-81
2024/04/09 00:58:15;;;;;;;19.73;7.00;;;;;;;18.85;78.81;97032.19;4506067;26;20597;-81
2024/04/09 01:00:19;;;;;;;22.97;6.40;;;;;;;18.84;79.06;97035.84;4498748;26;20667;-81
2024/04/09 01:02:25;;;;;;;17.90;5.70;;;;;;;18.80;78.44;97035.38;4503929;26;20575;-81
2024/04/09 01:04:29;;;;;;;25.60;7.17;;;;;;;18.77;78.54;97030.47;4477091;26;20570;-81
2024/04/09 01:06:38;;;;;;;21.93;6.97;;;;;;;18.75;78.58;97039.56;4470754;26;20722;-81
2024/04/09 01:08:42;;;;;;;23.43;6.20;;;;;;;18.72;79.04;97042.56;4526792;26;20613;-81
2024/04/09 01:10:52;;;;;;;14.60;7.07;;;;;;;18.70;79.51;97042.78;4528110;26;20577;-81
2024/04/09 01:12:55;;;;;;;23.57;6.70;;;;;;;18.71;79.66;97048.88;4522996;26;20610;-81
2024/04/09 01:15:03;;;;;;;22.53;8.40;;;;;;;18.70;79.80;97045.41;4472091;26;20610;-81
2024/04/09 01:17:07;;;;;;;17.67;6.07;;;;;;;18.71;79.67;97040.94;4463911;26;21108;-81
2024/04/09 01:19:13;;;;;;;14.83;6.10;;;;;;;18.70;79.58;97039.28;4471383;26;20986;-81
2024/04/09 01:21:17;;;;;;;17.70;6.90;;;;;;;18.67;79.75;97039.66;4492363;26;20988;-80
2024/04/09 01:23:26;;;;;;;22.47;7.17;;;;;;;18.64;80.47;97032.91;4470807;26;20561;-81
2024/04/09 01:25:29;;;;;;;24.30;6.90;;;;;;;18.63;80.58;97041.84;4507898;26;20604;-80
2024/04/09 01:27:37;;;;;;;22.27;7.27;;;;;;;18.60;81.28;97031.63;4533810;26;20566;-81
2024/04/09 01:29:41;;;;;;;20.87;6.83;;;;;;;18.60;80.90;97028.19;4500972;26;20628;-81
2024/04/09 01:31:46;;;;;;;19.67;6.50;;;;;;;18.58;80.69;97032.78;4497352;26;21564;-81
2024/04/09 01:33:51;;;;;;;22.63;6.70;;;;;;;18.59;81.52;97032.63;4504964;26;20627;-80
2024/04/09 01:35:59;;;;;;;22.90;7.20;;;;;;;18.57;80.54;97039.91;4510935;26;20619;-81
2024/04/09 01:38:03;;;;;;;18.17;6.57;;;;;;;18.53;80.60;97040.44;4502360;26;20961;-81
2024/04/09 01:40:12;;;;;;;18.07;6.33;;;;;;;18.51;80.28;97051.19;4495914;26;20593;-81
2024/04/09 01:42:17;;;;;;;21.47;5.87;;;;;;;18.51;80.19;97037.97;4529418;26;20630;-81
2024/04/09 01:44:22;;;;;;;23.80;6.70;;;;;;;18.46;79.56;97035.06;4504396;26;20994;-81
2024/04/09 01:46:26;;;;;;;19.80;6.57;;;;;;;18.42;80.01;97025.03;4479333;26;20561;-81
2024/04/09 01:48:29;;;;;;;21.33;6.60;;;;;;;18.41;80.50;97031.31;4471149;26;20570;-81
2024/04/09 01:50:39;;;;;;;19.23;7.00;;;;;;;18.37;80.61;97037.13;4468130;26;20625;-81
2024/04/09 01:52:43;;;;;;;23.00;6.50;;;;;;;18.31;80.29;97027.28;4536370;26;20567;-81
2024/04/09 01:54:49;;;;;;;24.13;7.17;;;;;;;18.23;80.53;97030.00;4527207;26;20560;-81
2024/04/09 01:56:55;;;;;;;18.10;6.17;;;;;;;18.15;82.02;97027.41;4505290;26;20552;-81
2024/04/09 01:59:01;;;;;;;26.33;6.03;;;;;;;18.10;82.71;97033.19;4505796;26;20639;-81
2024/04/09 02:01:09;;;;;;;21.50;7.10;;;;;;;18.04;82.34;97040.97;4502553;26;23332;-81
2024/04/09 02:03:15;;;;;;;17.03;7.47;;;;;;;18.01;82.69;97036.03;4494403;26;21186;-80
2024/04/09 02:05:19;;;;;;;20.43;6.83;;;;;;;18.03;82.68;97029.59;4527017;26;20555;-81
2024/04/09 02:07:25;;;;;;;26.67;8.23;;;;;;;18.00;82.83;97040.50;4534536;26;20931;-81
2024/04/09 02:09:28;;;;;;;25.00;7.80;;;;;;;18.01;82.47;97036.03;4501177;26;20568;-81
2024/04/09 02:11:34;;;;;;;17.30;5.90;;;;;;;18.01;83.71;97038.69;4499474;26;20532;-81
2024/04/09 02:13:40;;;;;;;26.00;8.27;;;;;;;18.01;82.78;97034.25;4476623;26;20578;-81
2024/04/09 02:15:48;;;;;;;21.67;6.67;;;;;;;18.01;83.80;97030.78;4505941;26;20619;-81
2024/04/09 02:17:52;;;;;;;27.57;7.33;;;;;;;17.99;83.17;97043.31;4499278;26;20541;-81
2024/04/09 02:19:58;;;;;;;17.53;6.20;;;;;;;17.98;83.71;97036.41;4495594;26;21121;-80
2024/04/09 02:22:01;;;;;;;19.57;6.30;;;;;;;17.99;83.57;97048.59;4504938;26;20918;-81
2024/04/09 02:24:07;;;;;;;28.80;7.63;;;;;;;17.99;83.72;97049.41;4477677;26;20656;-80
2024/04/09 02:26:11;;;;;;;22.67;6.73;;;;;;;17.99;83.35;97053.88;4534025;26;20570;-81
2024/04/09 02:28:18;;;;;;;20.30;6.90;;;;;;;18.00;83.89;97051.06;4502164;26;20564;-81
2024/04/09 02:30:24;;;;;;;21.07;6.20;;;;;;;18.00;84.04;97044.97;4467153;26;20647;-81
2024/04/09 02:32:30;;;;;;;18.67;6.80;;;;;;;17.97;82.72;97047.97;4494788;26;21176;-81
2024/04/09 02:34:35;;;;;;;21.50;8.27;;;;;;;17.94;83.47;97051.78;4491055;26;20673;-81
2024/04/09 02:36:42;;;;;;;17.00;6.50;;;;;;;17.90;84.36;97049.66;4538052;26;20566;-81
2024/04/09 02:38:45;;;;;;;21.23;7.27;;;;;;;17.83;84.79;97055.81;4475722;26;20565;-81
2024/04/09 02:40:51;;;;;;;23.87;6.57;;;;;;;17.81;84.75;97045.44;4501608;26;20564;-81
2024/04/09 02:42:56;;;;;;;24.13;7.20;;;;;;;17.78;84.64;97052.88;4471561;26;20702;-81
2024/04/09 02:45:00;;;;;;;20.73;7.23;;;;;;;17.74;85.44;97049.78;4504531;26;20576;-81
2024/04/09 02:47:09;;;;;;;17.80;6.87;;;;;;;17.72;84.95;97057.00;4523869;26;20577;-81
2024/04/09 02:49:13;;;;;;;23.77;6.97;;;;;;;17.70;85.47;97064.28;4533476;26;20560;-80
2024/04/09 02:51:21;;;;;;;20.00;7.03;;;;;;;17.70;85.53;97063.47;4495425;26;20626;-81
2024/04/09 02:53:28;;;;;;;19.20;6.67;;;;;;;17.72;85.52;97066.75;4498478;26;20621;-81
2024/04/09 02:55:34;;;;;;;22.17;8.50;;;;;;;17.70;84.94;97056.38;4474206;26;20547;-80
2024/04/09 02:57:38;;;;;;;24.80;7.50;;;;;;;17.69;84.95;97052.09;4536020;26;20682;-82
2024/04/09 02:59:43;;;;;;;20.53;7.40;;;;;;;17.66;84.59;97059.53;4526327;26;21120;-80
2024/04/09 03:01:47;;;;;;;21.57;7.83;;;;;;;17.68;85.51;97052.25;4531097;26;20679;-81
2024/04/09 03:03:57;;;;;;;22.43;7.87;;;;;;;17.66;86.01;97059.53;4470800;26;20568;-81
2024/04/09 03:06:05;;;;;;;27.90;9.80;;;;;;;17.62;85.83;97061.72;4526499;26;20546;-80
2024/04/09 03:08:11;;;;;;;26.17;7.53;;;;;;;17.60;86.38;97058.41;4497707;26;20561;-81
2024/04/09 03:10:15;;;;;;;19.17;7.50;;;;;;;17.56;86.14;97062.41;4521188;26;20562;-81
2024/04/09 03:12:21;;;;;;;23.13;7.10;;;;;;;17.54;85.79;97058.28;4493209;26;21005;-80
2024/04/09 03:14:24;;;;;;;20.47;6.73;;;;;;;17.51;85.57;97055.97;4500101;26;21122;-81
2024/04/09 03:16:31;;;;;;;20.47;6.90;;;;;;;17.45;85.90;97066.41;4505605;26;20543;-80
2024/04/09 03:18:33;;;;;;;19.63;6.93;;;;;;;17.42;85.05;97064.13;4528599;26;21105;-81
2024/04/09 03:20:43;;;;;;;28.10;7.50;;;;;;;17.39;85.20;97065.25;4476336;26;20572;-82
2024/04/09 03:22:46;;;;;;;18.87;7.57;;;;;;;17.37;84.90;97067.25;4475498;26;20607;-81
2024/04/09 03:24:52;;;;;;;17.93;6.90;;;;;;;17.34;85.43;97059.69;4536222;26;20565;-81
2024/04/09 03:26:56;;;;;;;18.27;7.53;;;;;;;17.34;85.73;97067.59;4472896;26;20615;-80
2024/04/09 03:29:01;;;;;;;18.77;6.70;;;;;;;17.34;85.96;97067.59;4497841;26;20579;-81
2024/04/09 03:31:05;;;;;;;28.57;7.43;;;;;;;17.32;85.61;97069.59;4494646;26;20563;-80
2024/04/09 03:33:12;;;;;;;20.63;6.13;;;;;;;17.32;86.31;97068.75;4493223;26;20576;-81
2024/04/09 03:35:16;;;;;;;19.90;7.00;;;;;;;17.29;85.62;97087.53;4470451;26;20652;-81
2024/04/09 03:37:24;;;;;;;25.03;8.43;;;;;;;17.29;85.93;97098.09;4474077;26;20586;-81
2024/04/09 03:39:30;;;;;;;24.37;7.10;;;;;;;17.27;85.42;97100.09;4500151;26;20624;-80
2024/04/09 03:41:33;;;;;;;25.60;8.43;;;;;;;17.20;85.61;97104.34;4495840;26;20566;-81
2024/04/09 03:43:41;;;;;;;23.20;7.50;;;;;;;17.13;86.05;97108.66;4506044;26;21248;-81
2024/04/09 03:45:47;;;;;;;21.80;7.97;;;;;;;17.09;85.83;97112.63;4497038;26;20610;-80
2024/04/09 03:48:04;;;;;;;21.17;7.73;;;;;;;17.07;86.66;97117.25;4529481;26;20564;-81
2024/04/09 03:50:08;;;;;;;19.73;6.93;;;;;;;17.04;86.45;97122.84;4501761;26;20632;-81
2024/04/09 03:52:14;;;;;;;20.90;7.93;;;;;;;16.97;85.68;97129.75;4505081;26;20636;-80
2024/04/09 03:54:20;;;;;;;19.03;6.87;;;;;;;16.94;86.20;97131.91;4495902;26;20568;-81
2024/04/09 03:56:26;;;;;;;23.53;7.47;;;;;;;16.94;86.47;97126.66;4502835;26;20661;-81
2024/04/09 03:58:31;;;;;;;22.80;7.27;;;;;;;16.85;86.65;97133.72;4496812;26;20613;-80
2024/04/09 04:00:36;;;;;;;20.03;6.37;;;;;;;16.80;86.00;97138.69;4530768;26;20598;-80
2024/04/09 04:02:40;;;;;;;24.07;7.87;;;;;;;16.76;86.72;97134.72;4496980;26;20630;-81
2024/04/09 04:04:46;;;;;;;16.80;6.30;;;;;;;16.74;87.25;97146.44;4474035;26;20583;-80
2024/04/09 04:06:49;;;;;;;22.63;8.07;;;;;;;16.54;87.45;97150.38;4480829;26;20980;-80
2024/04/09 04:08:52;;;;;;;23.47;6.90;;;;;;;16.50;87.61;97152.50;4500407;26;20619;-81
2024/04/09 04:11:01;;;;;;;20.20;6.40;;;;;;;16.46;87.43;97162.72;4529685;26;20571;-81
2024/04/09 04:13:08;;;;;;;26.17;7.97;;;;;;;16.42;87.84;97161.38;4502069;26;20546;-80
2024/04/09 04:15:15;;;;;;;17.33;6.60;;;;;;;16.39;87.76;97167.81;4474984;26;20583;-79
2024/04/09 04:17:19;;;;;;;16.63;6.17;;;;;;;16.34;87.35;97175.38;4497149;26;21211;-80
2024/04/09 04:19:26;;;;;;;16.00;6.50;;;;;;;16.27;87.83;97176.19;4500270;26;20842;-80
2024/04/09 04:21:29;;;;;;;26.67;7.10;;;;;;;16.26;88.44;97177.16;4489028;26;21139;-81
2024/04/09 04:23:35;;;;;;;21.23;6.80;;;;;;;16.27;88.71;97177.00;4467791;26;20757;-80
2024/04/09 04:25:39;;;;;;;20.43;6.70;;;;;;;16.29;88.56;97182.91;4473369;26;20579;-81
2024/04/09 04:27:48;;;;;;;16.20;7.30;;;;;;;16.35;88.92;97186.72;4501129;26;21268;-81
2024/04/09 04:29:50;;;;;;;25.30;6.60;;;;;;;16.37;88.69;97185.56;4531314;26;20646;-80
2024/04/09 04:31:56;;;;;;;21.00;7.57;;;;;;;16.42;88.63;97190.34;4494941;26;21021;-80
2024/04/09 04:33:59;;;;;;;25.93;7.20;;;;;;;16.42;88.42;97193.81;4529888;26;20612;-80
2024/04/09 04:36:08;;;;;;;24.37;6.73;;;;;;;16.40;88.24;97201.03;4464375;26;20977;-80
2024/04/09 04:38:14;;;;;;;24.00;8.03;;;;;;;16.39;88.51;97203.81;4470750;26;20569;-80
2024/04/09 04:40:19;;;;;;;28.47;10.13;;;;;;;16.35;88.00;97203.31;4518151;26;20657;-80
2024/04/09 04:42:22;;;;;;;16.17;7.13;;;;;;;16.26;88.17;97201.66;4494366;26;20613;-81
2024/04/09 04:44:31;;;;;;;22.93;7.40;;;;;;;16.24;88.21;97208.09;4480554;26;20931;-81
2024/04/09 04:46:34;;;;;;;20.50;7.50;;;;;;;16.25;88.45;97212.34;4529496;26;20564;-80
2024/04/09 04:48:40;;;;;;;17.73;6.10;;;;;;;16.22;88.19;97224.03;4525938;26;20630;-80
2024/04/09 04:50:45;;;;;;;22.03;5.80;;;;;;;16.22;88.21;97228.47;4499672;26;20661;-80
2024/04/09 04:52:52;;;;;;;17.97;7.10;;;;;;;16.24;87.87;97223.88;4534145;26;20587;-80
2024/04/09 04:54:54;;;;;;;20.20;5.67;;;;;;;16.29;86.77;97232.09;4465947;26;20607;-81
2024/04/09 04:57:02;;;;;;;17.00;6.47;;;;;;;16.41;85.14;97238.72;4503187;26;20576;-81
2024/04/09 04:59:06;;;;;;;16.13;6.13;;;;;;;16.45;85.17;97247.94;4529854;26;20915;-81
2024/04/09 05:01:15;;;;;;;20.83;7.93;;;;;;;16.48;85.89;97250.25;4501540;26;20616;-81
2024/04/09 05:03:18;;;;;;;21.93;6.40;;;;;;;16.43;86.09;97255.16;4503540;26;21119;-81
2024/04/09 05:05:31;;;;;;;17.63;5.87;;;;;;;16.39;86.47;97256.47;4513318;26;20645;-81
2024/04/09 05:07:36;;;;;;;20.50;8.50;;;;;;;16.37;86.54;97274.25;4494220;26;20571;-81
2024/04/09 05:09:41;;;;;;;20.40;7.67;;;;;;;16.35;86.84;97276.22;4525363;26;20610;-81
2024/04/09 05:11:47;;;;;;;29.67;13.47;;;;;;;16.35;87.19;97290.19;4477959;26;20666;-81
2024/04/09 05:13:52;;;;;;;25.07;10.83;;;;;;;16.38;87.13;97296.94;4517770;26;20577;-81
2024/04/09 05:15:55;;;;;;;25.60;6.90;;;;;;;16.32;87.45;97302.84;4494669;26;20670;-82
2024/04/09 05:18:04;;;;;;;21.13;6.80;;;;;;;16.30;87.12;97310.91;4465938;26;20570;-81
2024/04/09 05:20:09;;;;;;;22.80;7.73;;;;;;;16.27;86.85;97316.47;4491562;26;20554;-81
2024/04/09 05:22:17;;;;;;;22.60;6.00;;;;;;;16.26;85.69;97322.72;4487965;26;20615;-81
2024/04/09 05:24:23;;;;;;;29.33;8.60;;;;;;;16.30;84.86;97326.69;4489153;26;20560;-81
2024/04/09 05:26:29;;;;;;;17.13;5.63;;;;;;;16.37;85.03;97332.97;4497262;26;20617;-81
2024/04/09 05:28:32;;;;;;;23.53;6.83;;;;;;;16.39;85.88;97336.28;4487191;26;20574;-81
2024/04/09 05:30:38;;;;;;;23.47;8.07;;;;;;;16.38;86.14;97339.06;4469254;26;20578;-81
2024/04/09 05:32:42;;;;;;;19.67;9.10;;;;;;;16.36;86.49;97335.78;4509722;26;20589;-81
2024/04/09 05:34:48;;;;;;;25.47;9.87;;;;;;;16.36;86.93;97346.31;4522704;26;20615;-81
2024/04/09 05:36:53;;;;;;;19.53;8.70;;;;;;;16.38;86.95;97352.22;4506506;26;20561;-82
2024/04/09 05:38:56;;;;;;;20.57;6.83;;;;;;;16.44;86.94;97377.91;4491905;26;20575;-81
2024/04/09 05:41:02;;;;;;;24.50;7.00;;;;;;;16.51;85.63;97388.47;4473823;26;20557;-81
2024/04/09 05:43:05;;;;;;;18.90;6.07;;;;;;;16.61;84.47;97389.19;4497252;26;20602;-81
2024/04/09 05:45:12;;;;;;;17.07;5.70;;;;;;;16.71;83.76;97400.41;4476038;26;20622;-81
2024/04/09 05:47:14;;;;;;;21.70;5.80;;;;;;;16.83;83.28;97404.41;4470501;26;20606;-81
2024/04/09 05:49:22;;;;;;;20.17;5.70;;;;;;;16.97;83.41;97413.50;4496568;26;20624;-81
2024/04/09 05:51:28;;;;;;;21.83;5.63;;;;;;;17.14;83.58;97421.31;4495647;26;20560;-81
2024/04/09 05:53:33;;;;;;;22.10;6.37;;;;;;;17.33;83.31;97431.56;4498796;26;20564;-81
2024/04/09 05:55:36;;;;;;;15.50;6.47;;;;;;;17.41;85.09;97424.53;4495431;26;20582;-81
2024/04/09 05:57:42;;;;;;;21.20;6.10;;;;;;;17.46;84.21;97424.03;4469327;26;20619;-81
2024/04/09 05:59:46;;;;;;;16.10;6.40;;;;;;;17.51;85.71;97420.75;4490079;26;20589;-82
2024/04/09 06:01:56;;;;;;;17.73;6.03;;;;;;;17.52;87.17;97417.09;4479152;26;20639;-81
2024/04/09 06:03:59;;;;;;;21.17;6.33;;;;;;;17.55;85.92;97415.97;4477402;26;20555;-82
2024/04/09 06:06:05;;;;;;;27.90;6.83;;;;;;;17.62;84.71;97423.06;4522576;26;20991;-81
2024/04/09 06:08:10;;;;;;;21.07;5.97;;;;;;;17.79;85.03;97435.25;4495711;26;20568;-81
2024/04/09 06:10:18;;;;;;;17.27;5.10;;;;;;;17.97;83.31;97433.28;4466811;26;20667;-81
2024/04/09 06:12:22;;;;;;;16.87;4.20;;;;;;;18.17;81.62;97431.97;4479048;26;20559;-81
2024/04/09 06:14:28;;;;;;;15.67;4.00;;;;;;;18.39;80.49;97436.53;4501244;26;20567;-81
2024/04/09 06:16:31;;;;;;;12.30;4.43;;;;;;;18.58;80.15;97443.09;4458835;26;20559;-82
2024/04/09 06:18:36;;;;;;;13.63;4.27;;;;;;;18.76;79.66;97446.31;4500549;26;20648;-81
2024/04/09 06:20:39;;;;;;;20.47;4.33;;;;;;;18.93;79.58;97450.56;4473557;26;20556;-82
2024/04/09 06:22:46;;;;;;;15.73;4.60;;;;;;;19.02;78.79;97455.69;4503194;26;20614;-81
2024/04/09 06:24:51;;;;;;;12.03;3.80;;;;;;;19.07;78.70;97450.69;4494787;26;21013;-81
2024/04/09 06:26:57;;;;;;;13.63;4.70;;;;;;;19.08;78.35;97456.81;4504157;26;20682;-81
2024/04/09 06:29:01;;;;;;;12.63;4.87;;;;;;;19.10;77.79;97453.00;4469427;26;20571;-82
2024/04/09 06:31:06;;;;;;;10.17;3.30;;;;;;;19.12;76.96;97460.75;4466384;26;20670;-82
2024/04/09 06:33:09;;;;;;;10.03;2.87;;;;;;;19.12;75.58;97458.91;4503071;26;20587;-81
2024/04/09 06:35:20;;;;;;;9.07;3.00;;;;;;;19.12;75.98;97464.19;4494859;26;21038;-80
2024/04/09 06:37:23;;;;;;;9.43;3.07;;;;;;;19.15;75.83;97469.16;4503487;26;20706;-82
2024/04/09 06:39:29;;;;;;;9.00;2.50;;;;;;;19.21;75.92;97472.94;4494412;26;20594;-81
2024/04/09 06:41:35;;;;;;;9.70;2.60;;;;;;;19.27;75.93;97469.59;4502760;26;20612;-81
2024/04/09 06:43:41;;;;;;;9.17;2.50;;;;;;;19.40;75.25;97470.69;4497905;26;20562;-82
2024/04/09 06:45:46;;;;;;;7.00;2.50;;;;;;;19.52;75.66;97480.69;4496506;26;20617;-81
2024/04/09 06:47:51;;;;;;;10.57;3.47;;;;;;;19.60;75.59;97477.19;4494586;26;20537;-82
2024/04/09 06:49:56;;;;;;;5.10;2.10;;;;;;;19.64;75.21;97481.94;4530151;26;20975;-82
2024/04/09 06:52:02;;;;;;;7.60;2.10;;;;;;;19.65;74.97;97478.31;4500574;26;20571;-83
2024/04/09 06:54:05;;;;;;;7.20;1.97;;;;;;;19.67;75.23;97483.44;4531276;26;20970;-82
2024/04/09 06:56:11;;;;;;;8.43;2.33;;;;;;;19.72;74.92;97494.31;4470911;26;20580;-82
2024/04/09 06:58:16;;;;;;;5.30;1.80;;;;;;;19.86;74.92;97491.78;4500716;26;20561;-82
2024/04/09 07:00:22;;;;;;;9.40;1.97;;;;;;;19.85;73.98;97487.44;4492821;26;20560;-82
2024/04/09 07:02:25;;;;;;;6.50;1.67;;;;;;;19.94;74.58;97491.69;4497670;26;20544;-82
2024/04/09 07:04:33;;;;;;;6.23;2.00;;;;;;;20.08;75.60;97501.50;4455905;26;20682;-82
2024/04/09 07:06:37;;;;;;;6.07;1.73;;;;;;;20.11;74.44;97509.09;4536618;26;20568;-82
2024/04/09 07:08:43;;;;;;;7.03;1.63;;;;;;;20.22;75.23;97503.38;4523499;26;20661;-81
2024/04/09 07:10:54;;;;;;;8.27;2.27;;;;;;;20.31;74.28;97518.22;4505992;26;20672;-82
2024/04/09 07:12:59;;;;;;;6.87;2.03;;;;;;;20.32;74.53;97521.50;4475122;26;21216;-82
2024/04/09 07:15:06;;;;;;;5.20;2.30;;;;;;;20.37;75.39;97513.00;4505231;26;21254;-82
2024/04/09 07:17:12;;;;;;;8.57;2.20;;;;;;;20.42;74.18;97514.13;4499315;26;20672;-82
2024/04/09 07:19:16;;;;;;;7.07;2.10;;;;;;;20.47;74.38;97525.00;4489319;26;20576;-82
2024/04/09 07:21:25;;;;;;;6.20;2.23;;;;;;;20.47;74.80;97532.97;4523406;26;20548;-82
2024/04/09 07:23:28;;;;;;;7.67;2.73;;;;;;;20.50;74.07;97532.59;4507853;26;21020;-82
2024/04/09 07:25:33;;;;;;;6.07;2.00;;;;;;;20.65;74.92;97537.94;4495940;26;20657;-82
2024/04/09 07:27:37;;;;;;;5.90;1.50;;;;;;;20.72;74.12;97538.88;4530596;26;20612;-82
2024/04/09 07:29:43;;;;;;;4.57;1.97;;;;;;;20.84;74.09;97548.91;4531977;26;20555;-82
2024/04/09 07:31:49;;;;;;;8.63;2.10;;;;;;;20.93;73.50;97548.63;4500557;26;21036;-82
2024/04/09 07:33:55;;;;;;;10.50;2.07;;;;;;;20.93;73.50;97553.94;4505681;26;20627;-82
2024/04/09 07:35:58;;;;;;;6.23;2.13;;;;;;;20.98;73.58;97561.34;4503046;26;20550;-82
2024/04/09 07:38:04;;;;;;;4.97;2.00;;;;;;;21.08;74.41;97572.50;4529066;26;20559;-82
2024/04/09 07:40:08;;;;;;;7.17;1.90;;;;;;;21.10;72.88;97567.84;4492372;26;21049;-82
2024/04/09 07:42:14;;;;;;;3.87;1.50;;;;;;;21.18;73.58;97565.09;4521998;26;21025;-83
2024/04/09 07:44:17;;;;;;;10.03;2.10;;;;;;;21.25;73.22;97568.69;4520131;26;20633;-82
2024/04/09 07:46:23;;;;;;;8.10;1.83;;;;;;;21.29;71.47;97555.66;4506216;26;23185;-82
2024/04/09 07:48:30;;;;;;;6.40;1.97;;;;;;;21.49;74.09;97579.88;4517317;26;20560;-83
2024/04/09 07:50:37;;;;;;;4.90;2.03;;;;;;;21.56;71.81;97584.25;4499370;26;20691;-82
2024/04/09 07:52:40;;;;;;;9.53;1.90;;;;;;;21.43;72.11;97581.38;4504261;26;20653;-83
2024/04/09 07:54:45;;;;;;;6.83;2.43;;;;;;;21.24;73.17;97575.78;4521840;26;20554;-82
2024/04/09 07:56:48;;;;;;;8.20;1.87;;;;;;;21.00;73.27;97591.16;4502900;26;20647;-82
2024/04/09 07:58:54;;;;;;;7.73;1.90;;;;;;;20.82;74.31;97582.69;4497903;26;21414;-82
2024/04/09 08:00:57;;;;;;;5.77;2.07;;;;;;;20.70;74.62;97600.03;4529860;26;20541;-82
2024/04/09 08:03:03;;;;;;;8.30;2.37;;;;;;;20.61;74.32;97601.09;4502986;26;20557;-81
2024/04/09 08:05:09;;;;;;;8.10;2.40;;;;;;;20.46;74.98;97607.34;4525538;26;20660;-82
2024/04/09 08:07:17;;;;;;;4.73;1.80;;;;;;;20.32;75.34;97623.19;4490447;26;20672;-83
2024/04/09 08:09:20;;;;;;;7.27;1.93;;;;;;;20.14;76.11;97620.81;4524637;26;20568;-82
2024/04/09 08:11:26;;;;;;;6.33;2.00;;;;;;;19.83;76.67;97631.53;4492120;26;20567;-82
2024/04/09 08:13:29;;;;;;;6.13;1.87;;;;;;;19.51;77.47;97652.84;4472511;26;20681;-82
2024/04/09 08:15:35;;;;;;;5.27;1.80;;;;;;;19.31;77.27;97651.59;4482707;26;21126;-82
2024/04/09 08:17:39;;;;;;;4.40;1.30;;;;;;;19.09;77.40;97656.75;4502959;26;20557;-82
2024/04/09 08:19:44;;;;;;;5.63;1.30;;;;;;;18.89;77.24;97663.34;4500089;26;21254;-82
2024/04/09 08:21:52;;;;;;;4.37;1.27;;;;;;;18.56;76.72;97660.88;4496230;26;20535;-81
2024/04/09 08:23:59;;;;;;;3.40;1.00;;;;;;;18.28;76.19;97677.16;4495295;26;20605;-81
2024/04/09 08:26:02;;;;;;;6.70;1.07;;;;;;;18.09;76.28;97685.34;4499033;26;20632;-82
2024/04/09 08:28:09;;;;;;;2.77;0.90;;;;;;;17.92;75.72;97681.84;4516429;26;20570;-82
2024/04/09 08:30:13;;;;;;;3.40;0.80;;;;;;;17.71;75.04;97682.38;4495604;26;20559;-82
2024/04/09 08:32:20;;;;;;;5.87;0.70;;;;;;;17.60;75.40;97696.69;4488664;26;20581;-81
2024/04/09 08:34:23;;;;;;;1.97;0.50;;;;;;;17.43;74.25;97701.22;4533752;26;20560;-84
2024/04/09 08:36:30;;;;;;;3.30;1.13;;;;;;;17.29;73.82;97700.00;4494647;26;20586;-81
2024/04/09 08:38:36;;;;;;;1.90;0.73;;;;;;;17.06;73.64;97706.72;4516937;26;22605;-82
2024/04/09 08:40:42;;;;;;;2.57;0.50;;;;;;;16.91;73.52;97728.47;4505918;26;20566;-81
2024/04/09 08:42:46;;;;;;;4.07;0.50;;;;;;;16.85;74.59;97738.81;4488821;26;20619;-81
2024/04/09 08:44:55;;;;;;;1.77;0.50;;;;;;;16.78;75.11;97749.13;4479422;26;20606;-80
2024/04/09 08:46:58;;;;;;;2.43;1.00;;;;;;;16.72;75.46;97752.38;4506905;26;20613;-81
2024/04/09 08:49:04;;;;;;;2.67;0.70;;;;;;;16.66;74.65;97766.13;4480267;26;20614;-79
2024/04/09 08:51:10;;;;;;;4.03;0.77;;;;;;;16.66;74.45;97771.41;4496553;26;20543;-81
2024/04/09 08:53:20;;;;;;;7.43;0.67;;;;;;;16.53;75.28;97760.41;4474002;26;20687;-82
2024/04/09 08:55:26;;;;;;;2.47;0.70;;;;;;;16.46;75.29;97778.75;4521162;26;20607;-80
2024/04/09 08:57:30;;;;;;;2.37;1.10;;;;;;;16.44;75.32;97785.97;4498925;26;20569;-81
2024/04/09 08:59:36;;;;;;;1.60;0.50;;;;;;;16.40;74.33;97779.34;4475128;26;21264;-81
2024/04/09 09:01:39;;;;;;;1.90;0.70;;;;;;;16.35;74.57;97814.00;4534579;26;20611;-81
2024/04/09 09:03:45;;;;;;;5.83;0.83;;;;;;;16.23;74.94;97817.81;4471005;26;20745;-79
2024/04/09 09:05:58;;;;;;;4.00;0.70;;;;;;;16.17;74.93;97814.91;4530562;26;20580;-79
2024/04/09 09:08:07;;;;;;;2.87;0.90;;;;;;;16.06;73.63;97838.78;4524078;26;20558;-80
2024/04/09 09:10:13;;;;;;;2.10;0.70;;;;;;;15.85;73.68;97832.88;4496673;26;20564;-79
2024/04/09 09:12:21;;;;;;;4.63;0.80;;;;;;;15.67;74.30;97826.72;4484521;26;20569;-80
2024/04/09 09:14:26;;;;;;;5.57;0.77;;;;;;;15.64;74.14;97828.81;4502946;26;20561;-79
2024/04/09 09:16:30;;;;;;;5.07;0.93;;;;;;;15.63;74.23;97845.53;4486302;26;20631;-79
2024/04/09 09:18:36;;;;;;;4.13;0.93;;;;;;;15.60;74.12;97851.91;4495260;26;20570;-81
2024/04/09 09:20:39;;;;;;;3.80;0.90;;;;;;;15.58;73.90;97858.28;4501986;26;21061;-80
2024/04/09 09:22:45;;;;;;;5.00;0.80;;;;;;;15.55;74.04;97856.75;4524894;26;20614;-80
2024/04/09 09:24:57;;;;;;;2.30;0.60;;;;;;;15.48;73.79;97849.56;4499927;26;20666;-81
2024/04/09 09:27:02;;;;;;;2.87;0.97;;;;;;;15.44;74.31;97837.72;4504846;26;20578;-80
2024/04/09 09:29:09;;;;;;;3.10;0.67;;;;;;;15.44;74.01;97852.63;4499824;26;20757;-81
2024/04/09 09:31:14;;;;;;;4.07;0.57;;;;;;;15.41;74.52;97864.28;4538260;26;20690;-81
2024/04/09 09:33:20;;;;;;;6.00;1.07;;;;;;;15.37;73.91;97862.06;4505232;26;20587;-80
2024/04/09 09:35:29;;;;;;;4.30;0.60;;;;;;;15.28;73.95;97871.59;4531923;26;21004;-81
2024/04/09 09:37:34;;;;;;;2.97;0.67;;;;;;;15.23;74.18;97872.97;4500679;26;21251;-81
2024/04/09 09:39:41;;;;;;;3.33;0.80;;;;;;;15.25;74.32;97873.69;4495178;26;20736;-80
2024/04/09 09:41:45;;;;;;;3.83;0.70;;;;;;;15.23;74.53;97880.84;4468232;26;20571;-80
2024/04/09 09:43:51;;;;;;;2.53;0.57;;;;;;;15.23;74.86;97878.22;4493756;26;20682;-81
2024/04/09 09:45:57;;;;;;;2.27;0.70;;;;;;;15.20;74.38;97889.84;4495670;26;21481;-81